sensor_id;sensor_type;location;lat;lon;timestamp;pressure;altitude;pressure_sealevel;temperature;humidity
54248;BME280;40161;39.768;2.722;2023-05-01T00:07:01;101328.34;;;17.89;69.84
54248;BME280;40161;39.768;2.722;2023-05-01T00:09:27;101327.53;;;17.95;69.06
54248;BME280;40161;39.768;2.722;2023-05-01T00:11:53;101294.69;;;17.69;68.83
54248;BME280;40161;39.768;2.722;2023-05-01T00:14:18;101327.19;;;17.83;68.81
54248;BME280;40161;39.768;2.722;2023-05-01T00:16:44;101333.09;;;17.92;68.78
54248;BME280;40161;39.768;2.722;2023-05-01T01:54:23;101242.09;;;17.19;76.87
54248;BME280;40161;39.768;2.722;2023-05-01T01:56:51;101203.66;;;17.06;75.98
54248;BME280;40161;39.768;2.722;2023-05-01T01:59:19;101240.13;;;17.12;77.28
54248;BME280;40161;39.768;2.722;2023-05-01T02:01:46;101193.00;;;16.58;78.44
54248;BME280;40161;39.768;2.722;2023-05-01T02:04:13;101248.06;;;16.78;79.38
54248;BME280;40161;39.768;2.722;2023-05-01T02:06:41;101243.69;;;16.70;79.54
54248;BME280;40161;39.768;2.722;2023-05-01T02:09:08;101166.47;;;16.29;79.62
54248;BME280;40161;39.768;2.722;2023-05-01T02:11:35;101238.50;;;16.54;81.05
54248;BME280;40161;39.768;2.722;2023-05-01T02:14:03;101226.22;;;16.48;81.75
54248;BME280;40161;39.768;2.722;2023-05-01T02:16:32;101211.59;;;16.33;80.68
54248;BME280;40161;39.768;2.722;2023-05-01T02:18:59;101235.72;;;16.40;81.74
54248;BME280;40161;39.768;2.722;2023-05-01T02:21:26;101222.66;;;16.29;82.65
54248;BME280;40161;39.768;2.722;2023-05-01T02:23:53;101216.75;;;16.45;81.48
54248;BME280;40161;39.768;2.722;2023-05-01T03:30:33;101203.25;;;16.11;82.13
54248;BME280;40161;39.768;2.722;2023-05-01T03:32:59;101196.13;;;16.10;81.13
54248;BME280;40161;39.768;2.722;2023-05-01T03:35:24;101176.34;;;16.12;80.40
54248;BME280;40161;39.768;2.722;2023-05-01T03:37:50;101173.91;;;15.89;81.21
54248;BME280;40161;39.768;2.722;2023-05-01T03:40:16;101163.13;;;15.59;83.72
54248;BME280;40161;39.768;2.722;2023-05-01T03:42:41;101174.13;;;15.44;85.17
54248;BME280;40161;39.768;2.722;2023-05-01T05:10:01;101240.34;;;15.96;83.04
54248;BME280;40161;39.768;2.722;2023-05-01T05:12:26;101222.53;;;15.83;84.34
54248;BME280;40161;39.768;2.722;2023-05-01T05:14:52;101226.47;;;15.85;84.14
54248;BME280;40161;39.768;2.722;2023-05-01T05:32:26;101239.06;;;15.72;85.64
54248;BME280;40161;39.768;2.722;2023-05-01T05:34:51;101260.09;;;15.87;85.56
54248;BME280;40161;39.768;2.722;2023-05-01T05:37:17;101273.50;;;15.82;86.85
54248;BME280;40161;39.768;2.722;2023-05-01T05:39:44;101250.53;;;15.67;87.63
54248;BME280;40161;39.768;2.722;2023-05-01T05:42:09;101254.91;;;15.79;86.53
54248;BME280;40161;39.768;2.722;2023-05-01T05:44:35;101198.56;;;15.32;86.40
54248;BME280;40161;39.768;2.722;2023-05-01T05:47:00;101252.91;;;15.69;86.99
54248;BME280;40161;39.768;2.722;2023-05-01T05:49:26;101243.03;;;15.71;87.07
54248;BME280;40161;39.768;2.722;2023-05-01T05:51:51;101233.22;;;15.84;86.50
54248;BME280;40161;39.768;2.722;2023-05-01T05:54:17;101253.47;;;16.13;84.96
54248;BME280;40161;39.768;2.722;2023-05-01T05:56:42;101252.63;;;16.02;84.40
54248;BME280;40161;39.768;2.722;2023-05-01T05:59:08;101237.53;;;15.82;86.88
54248;BME280;40161;39.768;2.722;2023-05-01T06:01:33;101263.72;;;16.02;87.66
54248;BME280;40161;39.768;2.722;2023-05-01T06:03:59;101230.94;;;16.11;85.12
54248;BME280;40161;39.768;2.722;2023-05-01T06:06:25;101255.81;;;16.04;85.35
54248;BME280;40161;39.768;2.722;2023-05-01T06:08:51;101243.47;;;15.77;87.11
54248;BME280;40161;39.768;2.722;2023-05-01T06:11:17;101268.47;;;16.05;87.56
54248;BME280;40161;39.768;2.722;2023-05-01T06:13:42;101250.69;;;16.10;86.11
54248;BME280;40161;39.768;2.722;2023-05-01T06:16:08;101262.97;;;16.16;85.58
54248;BME280;40161;39.768;2.722;2023-05-01T06:18:33;101257.81;;;16.11;84.49
54248;BME280;40161;39.768;2.722;2023-05-01T06:20:59;101283.19;;;16.31;85.96
54248;BME280;40161;39.768;2.722;2023-05-01T06:23:24;101284.38;;;16.37;86.03
54248;BME280;40161;39.768;2.722;2023-05-01T06:25:50;101288.34;;;16.40;85.20
54248;BME280;40161;39.768;2.722;2023-05-01T06:28:15;101253.09;;;16.26;84.73
54248;BME280;40161;39.768;2.722;2023-05-01T06:30:41;101269.38;;;16.34;84.74
54248;BME280;40161;39.768;2.722;2023-05-01T06:33:06;101284.41;;;16.48;84.69
54248;BME280;40161;39.768;2.722;2023-05-01T06:35:34;101292.72;;;16.55;84.86
54248;BME280;40161;39.768;2.722;2023-05-01T06:37:59;101234.91;;;16.25;84.60
54248;BME280;40161;39.768;2.722;2023-05-01T06:40:25;101293.16;;;16.71;84.58
54248;BME280;40161;39.768;2.722;2023-05-01T06:42:50;101296.38;;;16.91;84.37
54248;BME280;40161;39.768;2.722;2023-05-01T06:45:16;101277.75;;;16.95;83.34
54248;BME280;40161;39.768;2.722;2023-05-01T06:47:41;101246.47;;;16.91;81.74
54248;BME280;40161;39.768;2.722;2023-05-01T06:50:08;101278.53;;;17.21;81.54
54248;BME280;40161;39.768;2.722;2023-05-01T06:52:33;101247.63;;;17.15;80.74
54248;BME280;40161;39.768;2.722;2023-05-01T06:54:59;101265.03;;;17.33;80.37
54248;BME280;40161;39.768;2.722;2023-05-01T06:57:25;101264.63;;;17.42;79.41
54248;BME280;40161;39.768;2.722;2023-05-01T06:59:50;101300.25;;;17.72;78.53
54248;BME280;40161;39.768;2.722;2023-05-01T07:02:16;101259.06;;;17.53;77.88
54248;BME280;40161;39.768;2.722;2023-05-01T07:04:42;101288.34;;;17.83;77.86
54248;BME280;40161;39.768;2.722;2023-05-01T07:07:09;101276.03;;;17.80;75.46
54248;BME280;40161;39.768;2.722;2023-05-01T07:09:34;101269.31;;;17.77;75.28
54248;BME280;40161;39.768;2.722;2023-05-01T07:12:00;101255.03;;;17.79;74.05
54248;BME280;40161;39.768;2.722;2023-05-01T07:14:27;101235.19;;;17.81;73.51
54248;BME280;40161;39.768;2.722;2023-05-01T07:16:53;101226.84;;;17.84;73.33
54248;BME280;40161;39.768;2.722;2023-05-01T07:19:18;101243.03;;;18.00;72.39
54248;BME280;40161;39.768;2.722;2023-05-01T07:21:44;101272.66;;;18.24;70.82
54248;BME280;40161;39.768;2.722;2023-05-01T07:24:09;101221.97;;;18.02;70.50
54248;BME280;40161;39.768;2.722;2023-05-01T07:26:36;101261.84;;;18.37;72.45
54248;BME280;40161;39.768;2.722;2023-05-01T07:29:03;101263.03;;;18.40;73.86
54248;BME280;40161;39.768;2.722;2023-05-01T07:31:28;101276.88;;;18.47;74.19
54248;BME280;40161;39.768;2.722;2023-05-01T07:33:55;101261.44;;;18.42;71.19
54248;BME280;40161;39.768;2.722;2023-05-01T07:36:21;101283.56;;;18.60;70.45
54248;BME280;40161;39.768;2.722;2023-05-01T07:38:47;101278.78;;;18.61;69.48
54248;BME280;40161;39.768;2.722;2023-05-01T07:41:13;101265.28;;;18.63;68.59
54248;BME280;40161;39.768;2.722;2023-05-01T07:43:39;101254.13;;;18.66;68.48
54248;BME280;40161;39.768;2.722;2023-05-01T07:46:04;101266.34;;;18.83;67.72
54248;BME280;40161;39.768;2.722;2023-05-01T07:48:31;101266.63;;;18.96;66.97
54248;BME280;40161;39.768;2.722;2023-05-01T07:51:00;101249.13;;;18.95;66.84
54248;BME280;40161;39.768;2.722;2023-05-01T07:53:26;101215.94;;;18.78;66.59
54248;BME280;40161;39.768;2.722;2023-05-01T07:55:52;101271.56;;;19.19;66.80
54248;BME280;40161;39.768;2.722;2023-05-01T07:58:17;101259.31;;;19.13;66.18
54248;BME280;40161;39.768;2.722;2023-05-01T08:00:43;101272.72;;;19.25;66.73
54248;BME280;40161;39.768;2.722;2023-05-01T08:03:10;101241.03;;;19.12;65.88
54248;BME280;40161;39.768;2.722;2023-05-01T08:05:39;101267.47;;;19.34;66.98
54248;BME280;40161;39.768;2.722;2023-05-01T08:08:05;101264.25;;;19.36;65.37
54248;BME280;40161;39.768;2.722;2023-05-01T08:10:30;101280.75;;;19.54;64.43
54248;BME280;40161;39.768;2.722;2023-05-01T08:12:56;101284.28;;;19.58;64.58
54248;BME280;40161;39.768;2.722;2023-05-01T08:15:22;101267.31;;;19.49;63.24
54248;BME280;40161;39.768;2.722;2023-05-01T08:17:48;101272.34;;;19.61;62.03
54248;BME280;40161;39.768;2.722;2023-05-01T08:20:15;101260.88;;;19.55;62.02
54248;BME280;40161;39.768;2.722;2023-05-01T08:22:41;101288.47;;;19.80;61.65
54248;BME280;40161;39.768;2.722;2023-05-01T08:25:06;101253.56;;;19.72;61.77
54248;BME280;40161;39.768;2.722;2023-05-01T08:27:32;101223.72;;;19.73;63.75
54248;BME280;40161;39.768;2.722;2023-05-01T08:29:58;101267.03;;;20.08;63.14
54248;BME280;40161;39.768;2.722;2023-05-01T08:32:23;101281.53;;;20.23;64.85
54248;BME280;40161;39.768;2.722;2023-05-01T08:34:49;101266.09;;;20.18;64.32
54248;BME280;40161;39.768;2.722;2023-05-01T08:37:14;101284.72;;;20.25;64.44
54248;BME280;40161;39.768;2.722;2023-05-01T08:39:40;101289.34;;;20.35;64.47
54248;BME280;40161;39.768;2.722;2023-05-01T08:42:05;101279.03;;;20.32;64.58
54248;BME280;40161;39.768;2.722;2023-05-01T08:44:33;101234.44;;;20.05;65.58
54248;BME280;40161;39.768;2.722;2023-05-01T08:47:15;101295.16;;;20.48;65.29
54248;BME280;40161;39.768;2.722;2023-05-01T08:49:41;101298.28;;;20.50;64.71
54248;BME280;40161;39.768;2.722;2023-05-01T08:52:08;101269.88;;;20.31;65.49
54248;BME280;40161;39.768;2.722;2023-05-01T08:54:35;101305.84;;;20.49;65.42
54248;BME280;40161;39.768;2.722;2023-05-01T08:57:05;101290.13;;;20.35;66.00
54248;BME280;40161;39.768;2.722;2023-05-01T08:59:34;101300.44;;;20.38;66.52
54248;BME280;40161;39.768;2.722;2023-05-01T09:02:02;101304.44;;;20.37;66.81
54248;BME280;40161;39.768;2.722;2023-05-01T09:04:33;101285.22;;;20.16;67.79
54248;BME280;40161;39.768;2.722;2023-05-01T09:07:00;101301.44;;;20.25;68.32
54248;BME280;40161;39.768;2.722;2023-05-01T09:09:27;101299.81;;;20.27;68.54
54248;BME280;40161;39.768;2.722;2023-05-01T09:12:11;101312.44;;;20.35;68.80
54248;BME280;40161;39.768;2.722;2023-05-01T09:14:37;101313.66;;;20.34;68.51
54248;BME280;40161;39.768;2.722;2023-05-01T09:17:03;101331.44;;;20.44;68.66
54248;BME280;40161;39.768;2.722;2023-05-01T09:19:29;101297.53;;;20.19;69.12
54248;BME280;40161;39.768;2.722;2023-05-01T09:21:54;101316.88;;;20.29;69.82
54248;BME280;40161;39.768;2.722;2023-05-01T09:24:23;101324.88;;;20.27;69.66
54248;BME280;40161;39.768;2.722;2023-05-01T09:26:50;101325.63;;;20.31;70.16
54248;BME280;40161;39.768;2.722;2023-05-01T09:29:39;101333.50;;;20.36;69.05
54248;BME280;40161;39.768;2.722;2023-05-01T09:32:31;101332.03;;;20.28;69.24
54248;BME280;40161;39.768;2.722;2023-05-01T09:35:11;101338.81;;;20.27;69.19
54248;BME280;40161;39.768;2.722;2023-05-01T09:37:38;101344.75;;;20.29;69.54
54248;BME280;40161;39.768;2.722;2023-05-01T09:40:13;101331.34;;;20.21;69.15
54248;BME280;40161;39.768;2.722;2023-05-01T09:42:48;101346.75;;;20.29;69.58
54248;BME280;40161;39.768;2.722;2023-05-01T09:45:14;101321.06;;;20.14;69.60
54248;BME280;40161;39.768;2.722;2023-05-01T09:47:42;101342.66;;;20.37;70.21
54248;BME280;40161;39.768;2.722;2023-05-01T09:50:12;101297.38;;;19.99;70.98
54248;BME280;40161;39.768;2.722;2023-05-01T09:52:52;101347.13;;;20.31;71.82
54248;BME280;40161;39.768;2.722;2023-05-01T09:55:18;101274.63;;;19.73;71.50
54248;BME280;40161;39.768;2.722;2023-05-01T09:57:45;101355.75;;;20.40;72.13
54248;BME280;40161;39.768;2.722;2023-05-01T10:00:12;101338.72;;;20.34;72.19
54248;BME280;40161;39.768;2.722;2023-05-01T10:02:44;101362.38;;;20.53;70.95
54248;BME280;40161;39.768;2.722;2023-05-01T10:05:11;101325.56;;;20.35;70.76
54248;BME280;40161;39.768;2.722;2023-05-01T10:07:37;101341.31;;;20.49;71.76
54248;BME280;40161;39.768;2.722;2023-05-01T10:10:18;101364.38;;;20.53;71.39
54248;BME280;40161;39.768;2.722;2023-05-01T10:12:45;101359.53;;;20.57;72.00
54248;BME280;40161;39.768;2.722;2023-05-01T10:15:11;101368.56;;;20.68;72.27
54248;BME280;40161;39.768;2.722;2023-05-01T10:17:38;101353.50;;;20.62;71.54
54248;BME280;40161;39.768;2.722;2023-05-01T10:20:05;101339.28;;;20.53;72.36
54248;BME280;40161;39.768;2.722;2023-05-01T10:22:34;101356.94;;;20.73;72.38
54248;BME280;40161;39.768;2.722;2023-05-01T10:25:00;101341.88;;;20.67;72.02
54248;BME280;40161;39.768;2.722;2023-05-01T10:27:29;101358.44;;;20.78;71.55
54248;BME280;40161;39.768;2.722;2023-05-01T10:29:54;101376.63;;;20.90;71.91
54248;BME280;40161;39.768;2.722;2023-05-01T10:32:20;101372.81;;;20.76;71.90
54248;BME280;40161;39.768;2.722;2023-05-01T10:34:50;101371.50;;;20.84;72.44
54248;BME280;40161;39.768;2.722;2023-05-01T10:37:28;101378.84;;;20.71;72.79
54248;BME280;40161;39.768;2.722;2023-05-01T10:39:58;101380.75;;;20.78;73.69
54248;BME280;40161;39.768;2.722;2023-05-01T10:42:23;101357.19;;;20.55;73.18
54248;BME280;40161;39.768;2.722;2023-05-01T10:44:50;101359.03;;;20.66;74.20
54248;BME280;40161;39.768;2.722;2023-05-01T10:50:13;101366.06;;;20.74;74.22
54248;BME280;40161;39.768;2.722;2023-05-01T10:55:44;101357.50;;;20.88;72.85
54248;BME280;40161;39.768;2.722;2023-05-01T10:58:11;101366.19;;;20.94;73.65
54248;BME280;40161;39.768;2.722;2023-05-01T11:00:38;101301.44;;;20.55;73.00
54248;BME280;40161;39.768;2.722;2023-05-01T11:08:37;101355.97;;;20.83;71.96
54248;BME280;40161;39.768;2.722;2023-05-01T11:14:07;101348.34;;;20.88;70.68
54248;BME280;40161;39.768;2.722;2023-05-01T11:21:47;101313.00;;;21.04;68.24
54248;BME280;40161;39.768;2.722;2023-05-01T11:24:12;101286.97;;;20.88;68.65
54248;BME280;40161;39.768;2.722;2023-05-01T11:26:40;101322.88;;;21.32;68.78
54248;BME280;40161;39.768;2.722;2023-05-01T11:29:07;101330.31;;;21.43;68.82
54248;BME280;40161;39.768;2.722;2023-05-01T11:31:34;101343.66;;;21.55;68.24
54248;BME280;40161;39.768;2.722;2023-05-01T11:34:01;101330.59;;;21.25;68.90
54248;BME280;40161;39.768;2.722;2023-05-01T11:36:28;101351.56;;;21.37;68.87
54248;BME280;40161;39.768;2.722;2023-05-01T11:38:58;101352.88;;;21.28;69.99
54248;BME280;40161;39.768;2.722;2023-05-01T11:41:27;101324.78;;;20.92;69.44
54248;BME280;40161;39.768;2.722;2023-05-01T11:43:54;101344.78;;;20.87;68.53
54248;BME280;40161;39.768;2.722;2023-05-01T11:49:00;101349.41;;;20.70;67.14
54248;BME280;40161;39.768;2.722;2023-05-01T11:51:26;101368.31;;;20.86;67.97
54248;BME280;40161;39.768;2.722;2023-05-01T11:56:26;101326.94;;;20.54;66.79
54248;BME280;40161;39.768;2.722;2023-05-01T11:58:54;101361.00;;;20.69;65.55
54248;BME280;40161;39.768;2.722;2023-05-01T12:01:19;101356.25;;;20.66;66.02
54248;BME280;40161;39.768;2.722;2023-05-01T12:03:45;101362.63;;;20.66;65.34
54248;BME280;40161;39.768;2.722;2023-05-01T12:06:11;101370.09;;;20.73;65.53
54248;BME280;40161;39.768;2.722;2023-05-01T12:08:46;101368.81;;;20.77;64.39
54248;BME280;40161;39.768;2.722;2023-05-01T12:11:12;101374.66;;;20.86;64.45
54248;BME280;40161;39.768;2.722;2023-05-01T12:13:39;101365.19;;;20.80;62.29
54248;BME280;40161;39.768;2.722;2023-05-01T12:16:05;101347.28;;;20.78;62.76
54248;BME280;40161;39.768;2.722;2023-05-01T12:18:31;101356.44;;;20.78;59.81
54248;BME280;40161;39.768;2.722;2023-05-01T12:20:56;101372.22;;;20.89;59.89
54248;BME280;40161;39.768;2.722;2023-05-01T12:23:34;101386.94;;;20.93;58.78
54248;BME280;40161;39.768;2.722;2023-05-01T12:26:23;101372.16;;;20.96;57.10
54248;BME280;40161;39.768;2.722;2023-05-01T12:28:56;101372.28;;;21.12;57.23
54248;BME280;40161;39.768;2.722;2023-05-01T12:31:23;101351.53;;;21.13;57.15
54248;BME280;40161;39.768;2.722;2023-05-01T12:36:20;101363.81;;;21.43;55.41
54248;BME280;40161;39.768;2.722;2023-05-01T12:44:23;101317.38;;;21.29;55.00
54248;BME280;40161;39.768;2.722;2023-05-01T12:47:02;101358.22;;;21.43;55.98
54248;BME280;40161;39.768;2.722;2023-05-01T12:49:29;101366.22;;;21.64;55.39
54248;BME280;40161;39.768;2.722;2023-05-01T12:51:57;101371.84;;;21.84;54.56
54248;BME280;40161;39.768;2.722;2023-05-01T12:54:30;101365.28;;;21.71;53.39
54248;BME280;40161;39.768;2.722;2023-05-01T12:59:36;101349.69;;;21.73;53.21
54248;BME280;40161;39.768;2.722;2023-05-01T13:02:02;101366.19;;;21.88;53.70
54248;BME280;40161;39.768;2.722;2023-05-01T13:04:29;101329.63;;;21.59;53.58
54248;BME280;40161;39.768;2.722;2023-05-01T13:06:55;101378.41;;;21.74;54.31
54248;BME280;40161;39.768;2.722;2023-05-01T13:09:22;101365.81;;;21.66;54.54
54248;BME280;40161;39.768;2.722;2023-05-01T13:12:02;101360.53;;;21.48;54.17
54248;BME280;40161;39.768;2.722;2023-05-01T13:14:37;101366.97;;;21.45;53.69
54248;BME280;40161;39.768;2.722;2023-05-01T13:17:07;101368.69;;;21.39;54.08
54248;BME280;40161;39.768;2.722;2023-05-01T13:19:33;101361.03;;;21.16;54.48
54248;BME280;40161;39.768;2.722;2023-05-01T13:21:59;101342.31;;;20.93;55.50
54248;BME280;40161;39.768;2.722;2023-05-01T13:24:37;101332.72;;;20.67;55.50
54248;BME280;40161;39.768;2.722;2023-05-01T13:27:03;101344.56;;;20.74;56.45
54248;BME280;40161;39.768;2.722;2023-05-01T13:29:29;101379.09;;;20.84;55.83
54248;BME280;40161;39.768;2.722;2023-05-01T13:31:55;101319.81;;;20.49;56.05
54248;BME280;40161;39.768;2.722;2023-05-01T13:34:25;101361.94;;;20.85;56.56
54248;BME280;40161;39.768;2.722;2023-05-01T13:36:56;101312.25;;;20.77;57.03
54248;BME280;40161;39.768;2.722;2023-05-01T13:39:22;101358.88;;;21.27;56.51
54248;BME280;40161;39.768;2.722;2023-05-01T13:41:51;101360.75;;;21.37;55.00
54248;BME280;40161;39.768;2.722;2023-05-01T13:44:18;101320.16;;;21.29;54.28
54248;BME280;40161;39.768;2.722;2023-05-01T13:46:44;101328.06;;;21.58;52.83
54248;BME280;40161;39.768;2.722;2023-05-01T13:49:11;101329.97;;;21.61;50.26
54248;BME280;40161;39.768;2.722;2023-05-01T13:51:40;101309.53;;;21.44;48.92
54248;BME280;40161;39.768;2.722;2023-05-01T13:54:08;101311.47;;;21.47;47.48
54248;BME280;40161;39.768;2.722;2023-05-01T13:56:36;101311.25;;;21.61;48.14
54248;BME280;40161;39.768;2.722;2023-05-01T13:59:02;101317.38;;;21.52;49.83
54248;BME280;40161;39.768;2.722;2023-05-01T14:01:29;101293.16;;;21.46;49.72
54248;BME280;40161;39.768;2.722;2023-05-01T14:03:54;101317.09;;;21.67;48.31
54248;BME280;40161;39.768;2.722;2023-05-01T14:18:29;101296.84;;;22.02;44.13
54248;BME280;40161;39.768;2.722;2023-05-01T14:20:54;101288.25;;;21.93;43.32
54248;BME280;40161;39.768;2.722;2023-05-01T14:23:20;101252.88;;;21.67;43.06
54248;BME280;40161;39.768;2.722;2023-05-01T14:25:48;101310.44;;;22.00;43.68
54248;BME280;40161;39.768;2.722;2023-05-01T14:28:13;101299.63;;;22.02;43.20
54248;BME280;40161;39.768;2.722;2023-05-01T14:30:39;101298.63;;;22.13;42.65
54248;BME280;40161;39.768;2.722;2023-05-01T14:33:12;101309.69;;;22.20;41.48
54248;BME280;40161;39.768;2.722;2023-05-01T14:35:50;101297.09;;;22.08;41.75
54248;BME280;40161;39.768;2.722;2023-05-01T14:38:18;101293.09;;;22.09;41.86
54248;BME280;40161;39.768;2.722;2023-05-01T14:40:45;101289.78;;;22.14;41.79
54248;BME280;40161;39.768;2.722;2023-05-01T14:43:16;101281.66;;;22.23;42.08
54248;BME280;40161;39.768;2.722;2023-05-01T14:45:42;101291.81;;;22.34;42.43
54248;BME280;40161;39.768;2.722;2023-05-01T14:48:21;101293.16;;;22.25;41.28
54248;BME280;40161;39.768;2.722;2023-05-01T14:50:47;101282.34;;;22.27;41.83
54248;BME280;40161;39.768;2.722;2023-05-01T14:53:13;101290.13;;;22.36;41.17
54248;BME280;40161;39.768;2.722;2023-05-01T14:55:40;101262.63;;;22.35;41.69
54248;BME280;40161;39.768;2.722;2023-05-01T14:58:05;101268.38;;;22.27;40.75
54248;BME280;40161;39.768;2.722;2023-05-01T15:00:31;101267.50;;;22.31;45.58
54248;BME280;40161;39.768;2.722;2023-05-01T15:02:58;101267.84;;;22.33;47.26
54248;BME280;40161;39.768;2.722;2023-05-01T15:05:23;101281.91;;;22.09;47.31
54248;BME280;40161;39.768;2.722;2023-05-01T15:07:54;101311.16;;;22.24;47.23
54248;BME280;40161;39.768;2.722;2023-05-01T15:10:24;101308.91;;;22.36;48.20
54248;BME280;40161;39.768;2.722;2023-05-01T15:12:50;101293.94;;;22.26;48.44
54248;BME280;40161;39.768;2.722;2023-05-01T15:15:15;101290.38;;;22.25;50.43
54248;BME280;40161;39.768;2.722;2023-05-01T15:17:41;101304.13;;;22.36;48.70
54248;BME280;40161;39.768;2.722;2023-05-01T15:20:07;101278.63;;;22.14;46.87
54248;BME280;40161;39.768;2.722;2023-05-01T15:22:33;101285.84;;;22.12;46.03
54248;BME280;40161;39.768;2.722;2023-05-01T15:24:59;101275.53;;;22.09;42.67
54248;BME280;40161;39.768;2.722;2023-05-01T15:27:24;101294.03;;;22.22;41.58
54248;BME280;40161;39.768;2.722;2023-05-01T15:29:50;101242.69;;;21.96;42.36
54248;BME280;40161;39.768;2.722;2023-05-01T15:32:15;101287.69;;;22.38;43.13
54248;BME280;40161;39.768;2.722;2023-05-01T15:34:41;101273.88;;;22.11;42.98
54248;BME280;40161;39.768;2.722;2023-05-01T15:37:07;101290.75;;;22.27;43.27
54248;BME280;40161;39.768;2.722;2023-05-01T15:39:33;101279.63;;;22.24;43.53
54248;BME280;40161;39.768;2.722;2023-05-01T15:41:58;101270.94;;;22.38;43.63
54248;BME280;40161;39.768;2.722;2023-05-01T15:44:25;101266.13;;;22.39;40.85
54248;BME280;40161;39.768;2.722;2023-05-01T15:46:52;101243.56;;;22.30;41.92
54248;BME280;40161;39.768;2.722;2023-05-01T15:49:17;101221.28;;;22.26;43.38
54248;BME280;40161;39.768;2.722;2023-05-01T15:51:43;101269.28;;;22.57;41.68
54248;BME280;40161;39.768;2.722;2023-05-01T15:54:09;101271.72;;;22.55;42.09
54248;BME280;40161;39.768;2.722;2023-05-01T15:56:36;101265.19;;;22.62;41.06
54248;BME280;40161;39.768;2.722;2023-05-01T15:59:06;101258.53;;;22.56;41.85
54248;BME280;40161;39.768;2.722;2023-05-01T16:01:33;101272.16;;;22.70;41.38
54248;BME280;40161;39.768;2.722;2023-05-01T16:03:59;101263.88;;;22.66;42.07
54248;BME280;40161;39.768;2.722;2023-05-01T16:06:25;101269.81;;;22.68;41.36
54248;BME280;40161;39.768;2.722;2023-05-01T16:08:52;101283.44;;;22.66;41.26
54248;BME280;40161;39.768;2.722;2023-05-01T16:11:18;101250.69;;;22.50;41.31
54248;BME280;40161;39.768;2.722;2023-05-01T16:13:43;101240.88;;;22.42;40.73
54248;BME280;40161;39.768;2.722;2023-05-01T16:16:10;101272.78;;;22.61;42.89
54248;BME280;40161;39.768;2.722;2023-05-01T16:18:39;101267.78;;;22.52;42.52
54248;BME280;40161;39.768;2.722;2023-05-01T16:21:09;101273.66;;;22.58;42.63
54248;BME280;40161;39.768;2.722;2023-05-01T16:23:35;101270.25;;;22.67;42.46
54248;BME280;40161;39.768;2.722;2023-05-01T16:26:02;101260.19;;;22.53;42.26
54248;BME280;40161;39.768;2.722;2023-05-01T16:28:27;101223.28;;;22.25;42.14
54248;BME280;40161;39.768;2.722;2023-05-01T16:30:53;101269.56;;;22.63;43.12
54248;BME280;40161;39.768;2.722;2023-05-01T16:33:19;101255.16;;;22.64;43.65
54248;BME280;40161;39.768;2.722;2023-05-01T16:35:46;101243.31;;;22.57;43.60
54248;BME280;40161;39.768;2.722;2023-05-01T16:38:13;101255.94;;;22.65;44.49
54248;BME280;40161;39.768;2.722;2023-05-01T16:40:41;101263.16;;;22.62;45.78
54248;BME280;40161;39.768;2.722;2023-05-01T16:43:07;101267.72;;;22.56;47.15
54248;BME280;40161;39.768;2.722;2023-05-01T16:45:32;101233.09;;;22.34;48.42
54248;BME280;40161;39.768;2.722;2023-05-01T16:47:58;101240.16;;;22.38;48.86
54248;BME280;40161;39.768;2.722;2023-05-01T16:50:23;101255.09;;;22.32;48.69
54248;BME280;40161;39.768;2.722;2023-05-01T16:52:52;101236.50;;;22.05;48.35
54248;BME280;40161;39.768;2.722;2023-05-01T16:55:19;101211.44;;;21.81;48.31
54248;BME280;40161;39.768;2.722;2023-05-01T16:57:45;101210.41;;;21.75;48.13
54248;BME280;40161;39.768;2.722;2023-05-01T17:00:11;101204.38;;;21.77;47.90
54248;BME280;40161;39.768;2.722;2023-05-01T17:02:38;101244.63;;;21.99;48.69
54248;BME280;40161;39.768;2.722;2023-05-01T17:05:04;101241.75;;;22.03;48.26
54248;BME280;40161;39.768;2.722;2023-05-01T17:07:30;101235.38;;;22.02;48.05
54248;BME280;40161;39.768;2.722;2023-05-01T17:09:56;101244.94;;;22.01;46.48
54248;BME280;40161;39.768;2.722;2023-05-01T17:12:22;101239.19;;;21.92;45.44
54248;BME280;40161;39.768;2.722;2023-05-01T17:14:47;101230.06;;;21.88;45.81
54248;BME280;40161;39.768;2.722;2023-05-01T17:17:14;101253.06;;;21.96;46.24
54248;BME280;40161;39.768;2.722;2023-05-01T17:19:39;101230.13;;;21.85;45.90
54248;BME280;40161;39.768;2.722;2023-05-01T17:22:06;101235.88;;;21.77;46.54
54248;BME280;40161;39.768;2.722;2023-05-01T17:24:32;101220.09;;;21.51;46.54
54248;BME280;40161;39.768;2.722;2023-05-01T17:26:57;101216.94;;;21.49;47.58
54248;BME280;40161;39.768;2.722;2023-05-01T17:29:23;101224.94;;;21.47;47.06
54248;BME280;40161;39.768;2.722;2023-05-01T17:31:48;101234.84;;;21.51;47.63
54248;BME280;40161;39.768;2.722;2023-05-01T17:34:14;101229.94;;;21.36;47.28
54248;BME280;40161;39.768;2.722;2023-05-01T17:36:39;101237.72;;;21.24;46.85
54248;BME280;40161;39.768;2.722;2023-05-01T17:39:05;101257.53;;;21.30;47.59
54248;BME280;40161;39.768;2.722;2023-05-01T17:41:31;101229.66;;;21.06;48.27
54248;BME280;40161;39.768;2.722;2023-05-01T17:43:57;101242.09;;;21.02;49.32
54248;BME280;40161;39.768;2.722;2023-05-01T17:46:22;101255.13;;;21.08;49.07
54248;BME280;40161;39.768;2.722;2023-05-01T17:48:48;101265.75;;;21.17;49.85
54248;BME280;40161;39.768;2.722;2023-05-01T17:51:14;101247.19;;;21.07;49.35
54248;BME280;40161;39.768;2.722;2023-05-01T17:53:40;101247.06;;;21.14;49.20
54248;BME280;40161;39.768;2.722;2023-05-01T17:56:06;101270.84;;;21.22;49.22
54248;BME280;40161;39.768;2.722;2023-05-01T17:58:32;101260.50;;;20.99;49.63
54248;BME280;40161;39.768;2.722;2023-05-01T18:00:58;101260.56;;;20.96;49.52
54248;BME280;40161;39.768;2.722;2023-05-01T18:03:23;101268.16;;;20.92;50.42